Time;durP1;ratioP1;P1;durP2;ratioP2;P2;SDS_P1;SDS_P2;PMS_P1;PMS_P2;Temp;Humidity;BMP_temperature;BMP_pressure;BME280_temperature;BME280_humidity;BME280_pressure;Samples;Min_cycle;Max_cycle;Signal;HPM_P1;HPM_P2
2023/12/02 00:00:53;;;;;;;13.30;8.75;;;;;;;;;;5058426;28;20024;-64
2023/12/02 00:03:19;;;;;;;15.77;9.38;;;;;;;;;;5057518;28;20387;-64
2023/12/02 00:05:45;;;;;;;14.10;8.90;;;;;;;;;;5056079;28;20025;-65
2023/12/02 00:08:11;;;;;;;17.48;9.30;;;;;;;;;;5056381;28;20532;-65
2023/12/02 00:10:38;;;;;;;13.15;10.02;;;;;;;;;;5048154;28;20320;-64
2023/12/02 00:13:04;;;;;;;16.88;11.27;;;;;;;;;;5062338;28;21450;-64
2023/12/02 00:15:30;;;;;;;16.55;11.30;;;;;;;;;;5058252;28;20085;-64
2023/12/02 00:17:56;;;;;;;15.57;10.18;;;;;;;;;;5059451;28;20032;-64
2023/12/02 00:20:22;;;;;;;14.38;8.40;;;;;;;;;;5059982;28;20154;-64
2023/12/02 00:22:49;;;;;;;14.35;8.40;;;;;;;;;;5061630;28;20043;-64
2023/12/02 00:25:15;;;;;;;14.93;7.93;;;;;;;;;;5055495;28;20055;-64
2023/12/02 00:27:41;;;;;;;17.02;7.90;;;;;;;;;;5058401;28;20028;-65
2023/12/02 00:30:07;;;;;;;13.45;8.73;;;;;;;;;;5060360;28;20399;-65
2023/12/02 00:32:33;;;;;;;11.38;7.72;;;;;;;;;;5065704;28;20032;-65
2023/12/02 00:35:00;;;;;;;12.77;8.75;;;;;;;;;;5059086;28;20055;-64
2023/12/02 00:37:26;;;;;;;13.00;7.82;;;;;;;;;;5062685;28;20040;-65
2023/12/02 00:39:52;;;;;;;8.88;7.15;;;;;;;;;;5061648;28;20092;-65
2023/12/02 00:42:18;;;;;;;11.45;7.43;;;;;;;;;;5061487;28;20036;-64
2023/12/02 00:44:44;;;;;;;11.75;7.07;;;;;;;;;;5057717;28;20155;-66
2023/12/02 00:47:10;;;;;;;10.70;7.63;;;;;;;;;;5057908;28;20475;-64
2023/12/02 00:49:36;;;;;;;10.00;6.30;;;;;;;;;;5062540;28;20575;-65
2023/12/02 00:52:03;;;;;;;7.82;6.10;;;;;;;;;;5058705;28;20036;-64
2023/12/02 00:54:33;;;;;;;12.75;5.38;;;;;;;;;;5059188;28;20036;-64
2023/12/02 00:56:59;;;;;;;6.72;5.50;;;;;;;;;;5051823;28;20198;-64
2023/12/02 00:59:26;;;;;;;8.00;5.75;;;;;;;;;;5059233;28;20032;-64
2023/12/02 01:01:52;;;;;;;9.38;5.95;;;;;;;;;;5059680;28;20043;-64
2023/12/02 01:04:18;;;;;;;10.35;6.07;;;;;;;;;;5063035;28;20028;-64
2023/12/02 01:06:44;;;;;;;14.82;7.07;;;;;;;;;;5061504;28;20042;-64
2023/12/02 01:09:10;;;;;;;18.50;8.23;;;;;;;;;;5061156;28;20037;-64
2023/12/02 01:11:36;;;;;;;7.38;5.82;;;;;;;;;;5058666;28;20033;-65
2023/12/02 01:14:03;;;;;;;11.63;5.22;;;;;;;;;;5061080;28;20017;-65
2023/12/02 01:16:29;;;;;;;10.35;5.45;;;;;;;;;;5052461;28;20120;-64
2023/12/02 01:18:55;;;;;;;8.25;5.28;;;;;;;;;;5060806;28;20040;-64
2023/12/02 01:21:21;;;;;;;7.07;4.38;;;;;;;;;;5059618;28;20025;-65
2023/12/02 01:23:47;;;;;;;5.13;4.40;;;;;;;;;;5062054;28;20394;-65
2023/12/02 01:26:13;;;;;;;6.88;4.55;;;;;;;;;;5060316;28;20040;-64
2023/12/02 01:28:39;;;;;;;5.95;3.85;;;;;;;;;;5058049;28;20136;-66
2023/12/02 01:31:06;;;;;;;6.40;5.40;;;;;;;;;;5056239;28;20032;-64
2023/12/02 01:33:32;;;;;;;5.15;3.95;;;;;;;;;;5062086;28;20758;-65
2023/12/02 01:35:58;;;;;;;6.40;4.43;;;;;;;;;;5062067;28;20032;-64
2023/12/02 01:38:24;;;;;;;8.57;5.32;;;;;;;;;;5059766;28;20028;-66
2023/12/02 01:40:50;;;;;;;5.72;4.18;;;;;;;;;;5060511;28;20013;-64
2023/12/02 01:43:27;;;;;;;7.22;5.28;;;;;;;;;;5060590;28;20357;-65
2023/12/02 01:45:54;;;;;;;5.22;4.57;;;;;;;;;;5063677;28;20067;-65
2023/12/02 01:48:21;;;;;;;6.05;4.97;;;;;;;;;;5055700;28;20037;-65
2023/12/02 01:50:47;;;;;;;7.20;5.27;;;;;;;;;;5071260;28;20025;-64
2023/12/02 01:53:13;;;;;;;9.70;5.15;;;;;;;;;;5060111;28;20032;-65
2023/12/02 01:55:39;;;;;;;6.88;4.40;;;;;;;;;;5057839;28;20062;-65
2023/12/02 01:58:07;;;;;;;5.65;4.88;;;;;;;;;;5056749;28;20207;-64
2023/12/02 02:00:33;;;;;;;6.80;4.63;;;;;;;;;;5058416;28;20632;-64
2023/12/02 02:03:00;;;;;;;7.32;4.45;;;;;;;;;;5061379;28;20024;-64
2023/12/02 02:05:27;;;;;;;5.13;3.97;;;;;;;;;;5058161;28;20089;-65
2023/12/02 02:07:53;;;;;;;7.95;5.28;;;;;;;;;;5059232;28;20039;-64
2023/12/02 02:10:22;;;;;;;7.60;4.75;;;;;;;;;;5057338;28;20028;-64
2023/12/02 02:12:48;;;;;;;10.30;6.13;;;;;;;;;;5062327;28;20028;-64
2023/12/02 02:15:15;;;;;;;12.35;8.07;;;;;;;;;;5056907;28;20128;-64
2023/12/02 02:17:41;;;;;;;8.00;6.63;;;;;;;;;;5048995;28;20020;-64
2023/12/02 02:20:08;;;;;;;10.27;6.20;;;;;;;;;;5057126;28;20117;-66
2023/12/02 02:22:34;;;;;;;10.32;7.60;;;;;;;;;;5058888;28;20077;-64
2023/12/02 02:25:01;;;;;;;10.75;6.28;;;;;;;;;;5063160;28;20025;-64
2023/12/02 02:27:27;;;;;;;7.70;4.88;;;;;;;;;;5058514;28;20036;-64
2023/12/02 02:29:53;;;;;;;6.13;4.35;;;;;;;;;;5063275;28;20035;-64
2023/12/02 02:32:19;;;;;;;6.53;5.40;;;;;;;;;;5056179;28;20466;-64
2023/12/02 02:34:45;;;;;;;14.05;7.65;;;;;;;;;;5058851;28;20029;-67
2023/12/02 02:37:11;;;;;;;9.63;5.10;;;;;;;;;;5071958;28;20118;-64
2023/12/02 02:39:38;;;;;;;13.50;9.68;;;;;;;;;;5061143;28;20025;-67
2023/12/02 02:42:06;;;;;;;22.52;10.52;;;;;;;;;;5059786;28;20108;-65
2023/12/02 02:44:38;;;;;;;11.23;7.20;;;;;;;;;;5052905;28;20139;-64
2023/12/02 02:47:04;;;;;;;14.48;7.15;;;;;;;;;;5059769;28;20040;-64
2023/12/02 02:49:30;;;;;;;17.92;9.70;;;;;;;;;;5059666;28;20028;-64
2023/12/02 02:51:57;;;;;;;17.30;8.60;;;;;;;;;;5058308;28;20052;-64
2023/12/02 02:54:23;;;;;;;12.23;6.85;;;;;;;;;;5059444;28;20041;-64
2023/12/02 02:56:49;;;;;;;8.45;4.72;;;;;;;;;;5059339;28;20031;-64
2023/12/02 02:59:16;;;;;;;14.63;7.90;;;;;;;;;;5057217;28;20488;-65
2023/12/02 03:01:43;;;;;;;9.32;6.35;;;;;;;;;;5050751;28;20345;-65
2023/12/02 03:04:09;;;;;;;8.25;4.65;;;;;;;;;;5058613;28;20555;-65
2023/12/02 03:06:35;;;;;;;8.57;5.60;;;;;;;;;;5053130;28;20104;-64
2023/12/02 03:09:02;;;;;;;11.82;5.50;;;;;;;;;;5056229;28;20033;-64
2023/12/02 03:11:28;;;;;;;6.65;4.63;;;;;;;;;;5053857;28;20037;-64
2023/12/02 03:13:54;;;;;;;5.32;4.15;;;;;;;;;;5052554;28;20021;-64
2023/12/02 03:16:20;;;;;;;7.97;3.60;;;;;;;;;;5058115;28;20024;-64
2023/12/02 03:18:46;;;;;;;5.53;4.30;;;;;;;;;;5052675;28;20401;-64
2023/12/02 03:21:12;;;;;;;4.03;3.17;;;;;;;;;;5058935;28;20093;-64
2023/12/02 03:23:38;;;;;;;7.18;4.20;;;;;;;;;;5055236;28;21135;-64
2023/12/02 03:26:05;;;;;;;6.35;4.65;;;;;;;;;;5054500;28;20032;-64
2023/12/02 03:28:31;;;;;;;6.55;4.05;;;;;;;;;;5063119;28;20032;-64
2023/12/02 03:30:57;;;;;;;6.40;4.13;;;;;;;;;;5058183;28;20035;-65
2023/12/02 03:33:23;;;;;;;7.50;4.25;;;;;;;;;;5068866;28;20032;-64
2023/12/02 03:35:49;;;;;;;5.03;3.75;;;;;;;;;;5061686;28;20379;-64
2023/12/02 03:38:15;;;;;;;6.13;4.18;;;;;;;;;;5060928;28;20091;-65
2023/12/02 03:40:42;;;;;;;5.35;3.80;;;;;;;;;;5064253;28;20040;-64
2023/12/02 03:43:09;;;;;;;4.85;3.22;;;;;;;;;;5061603;28;20036;-69
2023/12/02 03:45:35;;;;;;;6.18;3.22;;;;;;;;;;5057244;28;20041;-64
2023/12/02 03:48:01;;;;;;;5.03;3.50;;;;;;;;;;5063545;28;20108;-65
2023/12/02 03:50:27;;;;;;;5.72;3.97;;;;;;;;;;5065555;28;20052;-65
2023/12/02 03:52:54;;;;;;;3.42;2.50;;;;;;;;;;5062115;28;20497;-66
2023/12/02 03:55:20;;;;;;;6.22;4.25;;;;;;;;;;5058321;28;20487;-64
2023/12/02 03:57:46;;;;;;;3.45;3.08;;;;;;;;;;5063014;28;20156;-64
2023/12/02 04:00:19;;;;;;;3.35;2.80;;;;;;;;;;5066638;28;20431;-65
2023/12/02 04:02:45;;;;;;;7.85;3.50;;;;;;;;;;5062351;28;20442;-64
2023/12/02 04:05:13;;;;;;;4.13;2.97;;;;;;;;;;5063941;28;20024;-64
2023/12/02 04:07:40;;;;;;;3.80;3.17;;;;;;;;;;5065329;28;20036;-65
2023/12/02 04:10:06;;;;;;;4.22;3.28;;;;;;;;;;5063218;28;20094;-64
2023/12/02 04:12:35;;;;;;;4.05;3.10;;;;;;;;;;5063826;28;20514;-65
2023/12/02 04:15:02;;;;;;;5.25;3.70;;;;;;;;;;5061473;28;20016;-64
2023/12/02 04:17:28;;;;;;;5.40;2.97;;;;;;;;;;5060858;28;20570;-64
2023/12/02 04:19:54;;;;;;;3.72;2.92;;;;;;;;;;5067144;28;20349;-64
2023/12/02 04:22:20;;;;;;;5.63;3.47;;;;;;;;;;5062353;28;20075;-65
2023/12/02 04:24:47;;;;;;;4.13;2.85;;;;;;;;;;5057877;28;20051;-64
2023/12/02 04:27:13;;;;;;;5.05;3.40;;;;;;;;;;5057831;28;20396;-66
2023/12/02 04:29:41;;;;;;;4.32;3.10;;;;;;;;;;5070102;28;20428;-65
2023/12/02 04:32:08;;;;;;;4.97;2.75;;;;;;;;;;5054812;28;20407;-64
2023/12/02 04:34:34;;;;;;;3.55;3.20;;;;;;;;;;5060226;28;20071;-65
2023/12/02 04:37:01;;;;;;;7.43;3.45;;;;;;;;;;5074020;28;20063;-64
2023/12/02 04:39:27;;;;;;;4.95;3.20;;;;;;;;;;5063260;28;20124;-65
2023/12/02 04:41:54;;;;;;;7.47;3.08;;;;;;;;;;5060558;28;20471;-65
2023/12/02 04:44:20;;;;;;;4.07;2.75;;;;;;;;;;5062147;28;20412;-64
2023/12/02 04:46:47;;;;;;;10.00;3.03;;;;;;;;;;5061096;28;20043;-64
2023/12/02 04:49:13;;;;;;;6.43;3.85;;;;;;;;;;5057152;28;20123;-64
2023/12/02 04:51:39;;;;;;;4.18;2.65;;;;;;;;;;5054038;28;20044;-64
2023/12/02 04:54:05;;;;;;;4.28;3.22;;;;;;;;;;5059244;28;20020;-64
2023/12/02 04:56:31;;;;;;;5.00;3.50;;;;;;;;;;5057516;28;20055;-64
2023/12/02 04:58:58;;;;;;;4.47;3.20;;;;;;;;;;5055219;28;20407;-64
2023/12/02 05:01:24;;;;;;;5.25;2.70;;;;;;;;;;5061657;28;20221;-65
2023/12/02 05:03:50;;;;;;;4.90;3.10;;;;;;;;;;5059450;28;20078;-66
2023/12/02 05:06:17;;;;;;;4.30;2.90;;;;;;;;;;5059671;28;20056;-64
2023/12/02 05:08:46;;;;;;;7.00;3.05;;;;;;;;;;5061322;28;20036;-65
2023/12/02 05:11:20;;;;;;;3.10;2.58;;;;;;;;;;5064190;28;20032;-64
2023/12/02 05:13:46;;;;;;;5.72;3.13;;;;;;;;;;5060518;28;20564;-65
2023/12/02 05:16:13;;;;;;;10.35;3.42;;;;;;;;;;5062797;28;20020;-64
2023/12/02 05:18:42;;;;;;;12.82;3.10;;;;;;;;;;5063220;28;20066;-64
2023/12/02 05:21:09;;;;;;;4.25;2.72;;;;;;;;;;5052657;28;20025;-64
2023/12/02 05:23:35;;;;;;;3.05;2.75;;;;;;;;;;5063207;28;20029;-64
2023/12/02 05:26:02;;;;;;;6.72;3.63;;;;;;;;;;5064048;28;20016;-64
2023/12/02 05:28:28;;;;;;;5.30;3.30;;;;;;;;;;5059834;28;20028;-64
2023/12/02 05:30:55;;;;;;;3.25;2.90;;;;;;;;;;5076363;28;20361;-65
2023/12/02 05:33:22;;;;;;;7.05;4.00;;;;;;;;;;5054823;28;20040;-65
2023/12/02 05:35:51;;;;;;;5.70;3.60;;;;;;;;;;5061911;28;20701;-64
2023/12/02 05:38:17;;;;;;;4.40;2.63;;;;;;;;;;5060850;28;20032;-64
2023/12/02 05:40:43;;;;;;;3.72;3.03;;;;;;;;;;5062433;28;20059;-64
2023/12/02 05:43:10;;;;;;;4.68;2.67;;;;;;;;;;5060029;28;20090;-64
2023/12/02 05:45:36;;;;;;;4.72;3.25;;;;;;;;;;5060087;28;20580;-65
2023/12/02 05:48:02;;;;;;;3.72;3.22;;;;;;;;;;5058816;28;20036;-65
2023/12/02 05:50:28;;;;;;;5.75;3.10;;;;;;;;;;5053742;28;20028;-65
2023/12/02 05:52:54;;;;;;;6.40;3.80;;;;;;;;;;5054552;28;20443;-64
2023/12/02 05:55:21;;;;;;;4.78;3.03;;;;;;;;;;5062957;28;20413;-65
2023/12/02 05:57:47;;;;;;;3.63;3.17;;;;;;;;;;5066433;28;20066;-64
2023/12/02 06:00:16;;;;;;;5.05;3.13;;;;;;;;;;5059981;28;20467;-65
2023/12/02 06:02:43;;;;;;;3.75;2.85;;;;;;;;;;5058896;28;20029;-65
2023/12/02 06:05:09;;;;;;;3.25;2.95;;;;;;;;;;5072030;28;20376;-64
2023/12/02 06:07:35;;;;;;;3.20;2.60;;;;;;;;;;5053983;28;20098;-64
2023/12/02 06:10:01;;;;;;;4.00;2.35;;;;;;;;;;5064576;28;20032;-64
2023/12/02 06:12:27;;;;;;;3.78;2.78;;;;;;;;;;5037341;28;20046;-64
2023/12/02 06:14:54;;;;;;;9.43;2.95;;;;;;;;;;5055223;28;20102;-64
2023/12/02 06:17:20;;;;;;;3.95;2.72;;;;;;;;;;5059963;28;20028;-64
2023/12/02 06:19:46;;;;;;;6.80;2.88;;;;;;;;;;5056725;28;20040;-64
2023/12/02 06:22:13;;;;;;;3.78;3.00;;;;;;;;;;5063369;28;20510;-64
2023/12/02 06:24:39;;;;;;;3.67;2.65;;;;;;;;;;5066104;28;20504;-64
2023/12/02 06:27:05;;;;;;;5.15;3.05;;;;;;;;;;5069426;28;20036;-64
2023/12/02 06:29:32;;;;;;;4.13;2.75;;;;;;;;;;5057909;28;20598;-64
2023/12/02 06:31:58;;;;;;;5.53;2.75;;;;;;;;;;5067690;28;20119;-64
2023/12/02 06:34:24;;;;;;;5.88;3.33;;;;;;;;;;5055683;28;20452;-64
2023/12/02 06:36:50;;;;;;;3.42;2.80;;;;;;;;;;5063155;28;20032;-65
2023/12/02 06:39:16;;;;;;;5.60;3.60;;;;;;;;;;5056463;28;20025;-64
2023/12/02 06:41:42;;;;;;;5.07;3.08;;;;;;;;;;5056742;28;20058;-63
2023/12/02 06:44:09;;;;;;;4.20;2.85;;;;;;;;;;5057508;28;20111;-64
2023/12/02 06:46:35;;;;;;;4.38;3.13;;;;;;;;;;5057530;28;20449;-65
2023/12/02 06:49:01;;;;;;;5.22;2.83;;;;;;;;;;5078160;28;20158;-64
2023/12/02 06:51:30;;;;;;;4.35;3.33;;;;;;;;;;5064372;28;20021;-64
2023/12/02 06:53:59;;;;;;;4.35;2.47;;;;;;;;;;5058643;28;20033;-64
2023/12/02 06:56:26;;;;;;;5.93;2.83;;;;;;;;;;5047873;28;20024;-64
2023/12/02 06:58:53;;;;;;;4.30;3.05;;;;;;;;;;5058132;28;20024;-63
2023/12/02 07:01:37;;;;;;;3.40;2.70;;;;;;;;;;5056709;28;20043;-64
2023/12/02 07:04:03;;;;;;;9.05;3.10;;;;;;;;;;5078654;28;20070;-64
2023/12/02 07:06:31;;;;;;;3.90;2.72;;;;;;;;;;5069686;28;20120;-64
2023/12/02 07:08:57;;;;;;;3.88;2.85;;;;;;;;;;5062005;28;20034;-64
2023/12/02 07:11:23;;;;;;;6.57;3.85;;;;;;;;;;5056975;28;20032;-64
2023/12/02 07:13:49;;;;;;;2.85;2.65;;;;;;;;;;5055756;28;20120;-65
2023/12/02 07:16:16;;;;;;;7.53;3.67;;;;;;;;;;5057062;28;20263;-64
2023/12/02 07:18:42;;;;;;;4.57;3.20;;;;;;;;;;5056499;28;20098;-65
2023/12/02 07:21:09;;;;;;;4.72;2.90;;;;;;;;;;5069859;28;20055;-64
2023/12/02 07:23:36;;;;;;;3.58;2.85;;;;;;;;;;5073166;28;20445;-64
2023/12/02 07:26:02;;;;;;;4.53;2.33;;;;;;;;;;5081254;28;20135;-64
2023/12/02 07:28:28;;;;;;;3.35;2.83;;;;;;;;;;5058435;28;20536;-64
2023/12/02 07:30:55;;;;;;;3.95;2.70;;;;;;;;;;5057700;28;20476;-64
2023/12/02 07:33:21;;;;;;;3.35;2.65;;;;;;;;;;5059195;28;20067;-64
2023/12/02 07:35:48;;;;;;;3.28;2.55;;;;;;;;;;5058946;28;21477;-68
2023/12/02 07:38:14;;;;;;;3.55;2.70;;;;;;;;;;5063567;28;20027;-64
2023/12/02 07:40:40;;;;;;;4.57;2.70;;;;;;;;;;5060304;28;20021;-64
2023/12/02 07:43:06;;;;;;;4.30;3.20;;;;;;;;;;5064684;28;20033;-64
2023/12/02 07:45:33;;;;;;;2.42;2.22;;;;;;;;;;5066630;28;20156;-64
2023/12/02 07:47:59;;;;;;;4.90;2.75;;;;;;;;;;5057925;28;20296;-64
2023/12/02 07:50:25;;;;;;;2.70;2.50;;;;;;;;;;5082931;28;20032;-64
2023/12/02 07:52:52;;;;;;;3.30;2.90;;;;;;;;;;5059343;28;20033;-64
2023/12/02 07:55:18;;;;;;;5.47;2.70;;;;;;;;;;5063604;28;20568;-65
2023/12/02 07:57:44;;;;;;;6.60;3.85;;;;;;;;;;5055340;28;20039;-64
2023/12/02 08:00:11;;;;;;;6.07;2.40;;;;;;;;;;5062702;28;20024;-63
2023/12/02 08:02:37;;;;;;;3.83;2.65;;;;;;;;;;5059275;28;20041;-64
2023/12/02 08:05:03;;;;;;;4.13;2.60;;;;;;;;;;5059685;28;20129;-64
2023/12/02 08:07:30;;;;;;;3.72;2.38;;;;;;;;;;5057461;28;20047;-64
2023/12/02 08:09:56;;;;;;;17.48;2.95;;;;;;;;;;5062663;28;20090;-64
2023/12/02 08:12:22;;;;;;;5.30;3.30;;;;;;;;;;5079071;28;20024;-64
2023/12/02 08:14:49;;;;;;;5.63;2.83;;;;;;;;;;5058924;28;20024;-63
2023/12/02 08:17:15;;;;;;;5.50;3.10;;;;;;;;;;5066356;28;20028;-63
2023/12/02 08:19:41;;;;;;;4.40;3.40;;;;;;;;;;5059648;28;20025;-63
2023/12/02 08:22:07;;;;;;;2.88;2.33;;;;;;;;;;5060593;28;20393;-63
2023/12/02 08:24:35;;;;;;;3.10;2.28;;;;;;;;;;5067236;28;20032;-68
2023/12/02 08:27:02;;;;;;;4.47;3.08;;;;;;;;;;5059367;28;20207;-68
2023/12/02 08:29:28;;;;;;;5.53;3.10;;;;;;;;;;5059931;28;20025;-68
2023/12/02 08:31:54;;;;;;;3.30;2.67;;;;;;;;;;5064951;28;20036;-70
2023/12/02 08:34:21;;;;;;;4.18;2.75;;;;;;;;;;5076138;28;20504;-68
2023/12/02 08:36:47;;;;;;;2.83;2.53;;;;;;;;;;5090571;27;20675;-69
2023/12/02 08:39:13;;;;;;;11.63;3.33;;;;;;;;;;5060427;28;20024;-69
2023/12/02 08:41:40;;;;;;;4.82;2.85;;;;;;;;;;5056847;28;20504;-69
2023/12/02 08:44:06;;;;;;;3.13;2.40;;;;;;;;;;5062676;28;20059;-69
2023/12/02 08:46:32;;;;;;;5.78;3.22;;;;;;;;;;5061877;28;20024;-69
2023/12/02 08:48:58;;;;;;;5.25;3.22;;;;;;;;;;5063396;28;20035;-69
2023/12/02 08:51:25;;;;;;;6.88;4.32;;;;;;;;;;5065724;28;20044;-69
2023/12/02 08:54:00;;;;;;;12.27;7.10;;;;;;;;;;5061663;28;20487;-69
2023/12/02 08:56:27;;;;;;;5.85;3.40;;;;;;;;;;5065158;28;20096;-69
2023/12/02 08:58:54;;;;;;;4.72;3.47;;;;;;;;;;5062770;28;20460;-69
2023/12/02 09:01:20;;;;;;;3.47;3.17;;;;;;;;;;5059337;28;20475;-68
2023/12/02 09:03:46;;;;;;;5.63;4.22;;;;;;;;;;5062698;28;20037;-69
2023/12/02 09:06:12;;;;;;;4.63;3.03;;;;;;;;;;5063869;28;20043;-69
2023/12/02 09:08:39;;;;;;;3.85;3.20;;;;;;;;;;5069150;28;20024;-69
2023/12/02 09:11:06;;;;;;;3.08;2.78;;;;;;;;;;5057592;28;20522;-69
2023/12/02 09:13:38;;;;;;;3.60;3.17;;;;;;;;;;5065997;28;20021;-69
2023/12/02 09:16:05;;;;;;;3.65;2.40;;;;;;;;;;5063187;28;20036;-69
2023/12/02 09:18:35;;;;;;;4.65;3.38;;;;;;;;;;5062867;28;20025;-69
2023/12/02 09:21:02;;;;;;;5.03;3.35;;;;;;;;;;5063426;28;20023;-70
2023/12/02 09:23:28;;;;;;;3.72;2.65;;;;;;;;;;5060669;28;20077;-69
2023/12/02 09:25:58;;;;;;;7.82;2.92;;;;;;;;;;5064598;28;20112;-69
2023/12/02 09:28:27;;;;;;;3.85;2.88;;;;;;;;;;5064114;28;20763;-69
2023/12/02 09:31:02;;;;;;;5.15;2.80;;;;;;;;;;5060366;28;20046;-70
2023/12/02 09:33:29;;;;;;;4.22;3.22;;;;;;;;;;5059944;28;20041;-70
2023/12/02 09:35:59;;;;;;;3.60;2.80;;;;;;;;;;5065897;28;20052;-69
2023/12/02 09:38:27;;;;;;;5.07;2.80;;;;;;;;;;5059978;28;20055;-68
2023/12/02 09:41:09;;;;;;;5.18;2.67;;;;;;;;;;5066465;28;20028;-69
2023/12/02 09:43:55;;;;;;;3.67;2.30;;;;;;;;;;5066477;28;20036;-69
2023/12/02 09:46:30;;;;;;;6.55;3.08;;;;;;;;;;5057826;28;20470;-67
2023/12/02 09:49:09;;;;;;;4.50;2.95;;;;;;;;;;5066562;28;20063;-69
2023/12/02 09:51:35;;;;;;;3.85;2.97;;;;;;;;;;5063680;28;20078;-69
2023/12/02 09:54:05;;;;;;;5.13;3.30;;;;;;;;;;5063677;28;20036;-68
2023/12/02 09:56:39;;;;;;;4.95;2.88;;;;;;;;;;5063224;28;20021;-68
2023/12/02 09:59:12;;;;;;;3.38;2.70;;;;;;;;;;5076359;28;20320;-69
2023/12/02 10:01:43;;;;;;;5.38;3.20;;;;;;;;;;5064450;28;20055;-68
2023/12/02 10:04:44;;;;;;;7.35;2.60;;;;;;;;;;5062099;28;20020;-68
2023/12/02 10:07:15;;;;;;;4.80;2.95;;;;;;;;;;5030752;28;20045;-68
2023/12/02 10:09:48;;;;;;;3.53;2.55;;;;;;;;;;5051477;28;20143;-68
2023/12/02 10:12:37;;;;;;;4.22;3.45;;;;;;;;;;5062065;28;20024;-68
2023/12/02 10:15:05;;;;;;;5.10;3.13;;;;;;;;;;5049933;28;20392;-69
2023/12/02 10:17:32;;;;;;;4.35;3.17;;;;;;;;;;5063104;28;20031;-69
2023/12/02 10:20:09;;;;;;;6.00;4.03;;;;;;;;;;5058294;28;20029;-68
2023/12/02 10:22:37;;;;;;;3.75;3.08;;;;;;;;;;5064153;28;20602;-69
2023/12/02 10:25:05;;;;;;;3.38;2.78;;;;;;;;;;5062909;28;20028;-68
2023/12/02 10:27:35;;;;;;;4.35;2.70;;;;;;;;;;5081744;28;20032;-68
2023/12/02 10:30:09;;;;;;;2.60;2.40;;;;;;;;;;5056397;28;20506;-68
2023/12/02 10:32:45;;;;;;;2.30;2.10;;;;;;;;;;5054919;28;20120;-68
2023/12/02 10:35:32;;;;;;;4.07;3.03;;;;;;;;;;5058133;28;20400;-68
2023/12/02 10:38:15;;;;;;;4.00;2.80;;;;;;;;;;5063598;28;20035;-69
2023/12/02 10:40:46;;;;;;;4.05;3.00;;;;;;;;;;5059555;28;20785;-69
2023/12/02 10:43:23;;;;;;;2.83;2.58;;;;;;;;;;5066390;28;20476;-68
2023/12/02 10:45:50;;;;;;;6.13;3.13;;;;;;;;;;5056337;28;20072;-69
2023/12/02 10:48:18;;;;;;;4.80;2.95;;;;;;;;;;5083771;28;20523;-67
2023/12/02 10:50:45;;;;;;;3.90;2.97;;;;;;;;;;5066876;28;20274;-68
2023/12/02 10:53:12;;;;;;;4.18;3.17;;;;;;;;;;5059579;28;20127;-68
2023/12/02 10:55:40;;;;;;;3.08;2.78;;;;;;;;;;5070691;28;20024;-68
2023/12/02 10:58:07;;;;;;;2.13;1.83;;;;;;;;;;5062176;28;20395;-68
2023/12/02 11:00:39;;;;;;;6.15;2.50;;;;;;;;;;5059369;28;20025;-68
2023/12/02 11:03:05;;;;;;;3.75;2.80;;;;;;;;;;5072238;28;20394;-68
2023/12/02 11:05:36;;;;;;;2.67;1.98;;;;;;;;;;5054087;28;20037;-69
2023/12/02 11:08:06;;;;;;;2.60;2.38;;;;;;;;;;5065948;28;20032;-68
2023/12/02 11:10:40;;;;;;;5.53;2.58;;;;;;;;;;5062136;28;20032;-68
2023/12/02 11:13:12;;;;;;;6.57;2.92;;;;;;;;;;5070716;28;20078;-68
2023/12/02 11:15:58;;;;;;;3.85;2.60;;;;;;;;;;5070007;28;20017;-68
2023/12/02 11:18:31;;;;;;;6.20;3.30;;;;;;;;;;5036394;28;20043;-68
2023/12/02 11:21:04;;;;;;;6.68;3.65;;;;;;;;;;5065585;28;20039;-69
2023/12/02 11:23:42;;;;;;;5.32;3.60;;;;;;;;;;5055775;28;20025;-69
2023/12/02 11:26:14;;;;;;;4.47;3.17;;;;;;;;;;5063858;28;20076;-68
2023/12/02 11:28:55;;;;;;;5.53;3.53;;;;;;;;;;5064860;28;20028;-69
2023/12/02 11:31:25;;;;;;;6.35;2.67;;;;;;;;;;5066582;28;20021;-70
2023/12/02 11:34:09;;;;;;;3.60;2.58;;;;;;;;;;5065267;28;20021;-69
2023/12/02 11:37:02;;;;;;;6.75;2.35;;;;;;;;;;5083611;28;20029;-69
2023/12/02 11:39:41;;;;;;;4.18;2.30;;;;;;;;;;5055539;28;20040;-70
2023/12/02 11:42:14;;;;;;;3.33;2.20;;;;;;;;;;5055408;28;20037;-68
2023/12/02 11:44:59;;;;;;;4.55;3.00;;;;;;;;;;5072114;28;20734;-70
2023/12/02 11:47:38;;;;;;;3.67;2.75;;;;;;;;;;5078841;28;20085;-69
2023/12/02 11:50:27;;;;;;;3.78;2.70;;;;;;;;;;5064073;28;20107;-69
2023/12/02 11:53:08;;;;;;;5.47;3.17;;;;;;;;;;5073900;28;20043;-69
2023/12/02 11:55:50;;;;;;;3.70;2.50;;;;;;;;;;5071270;28;20034;-68
2023/12/02 11:58:22;;;;;;;2.75;2.38;;;;;;;;;;5076934;28;20514;-69
2023/12/02 12:00:55;;;;;;;2.85;2.33;;;;;;;;;;5061116;28;20029;-69
2023/12/02 12:03:41;;;;;;;5.28;2.70;;;;;;;;;;5047859;28;20025;-70
2023/12/02 12:06:20;;;;;;;5.25;2.60;;;;;;;;;;5061354;28;20979;-69
2023/12/02 12:09:02;;;;;;;5.90;3.00;;;;;;;;;;5063385;28;20630;-70
2023/12/02 12:11:29;;;;;;;6.75;2.90;;;;;;;;;;5057712;28;20206;-70
2023/12/02 12:13:55;;;;;;;5.50;4.07;;;;;;;;;;5065311;28;20061;-69
2023/12/02 12:16:22;;;;;;;7.88;5.43;;;;;;;;;;5074217;28;20041;-69
2023/12/02 12:18:48;;;;;;;27.48;12.68;;;;;;;;;;5066057;28;20033;-69
2023/12/02 12:21:14;;;;;;;15.07;8.65;;;;;;;;;;5062952;28;20028;-69
2023/12/02 12:23:41;;;;;;;24.30;13.55;;;;;;;;;;5064521;28;20785;-70
2023/12/02 12:26:07;;;;;;;9.23;5.47;;;;;;;;;;5081194;28;20035;-70
2023/12/02 12:28:36;;;;;;;27.50;12.77;;;;;;;;;;5065582;28;20024;-69
2023/12/02 12:31:02;;;;;;;39.22;19.70;;;;;;;;;;5060740;28;20384;-69
2023/12/02 12:33:29;;;;;;;16.45;9.45;;;;;;;;;;5055407;28;20134;-68
2023/12/02 12:35:56;;;;;;;5.80;4.22;;;;;;;;;;5063472;28;20044;-69
2023/12/02 12:38:22;;;;;;;5.65;3.90;;;;;;;;;;5061287;28;20094;-69
2023/12/02 12:40:51;;;;;;;7.22;4.65;;;;;;;;;;5069165;28;20037;-69
2023/12/02 12:43:18;;;;;;;4.45;3.70;;;;;;;;;;5060992;28;20032;-69
2023/12/02 12:45:44;;;;;;;5.78;4.00;;;;;;;;;;5061619;28;20048;-70
2023/12/02 12:48:11;;;;;;;6.13;3.90;;;;;;;;;;5062713;28;20424;-69
2023/12/02 12:50:38;;;;;;;4.28;3.20;;;;;;;;;;5072983;28;20032;-69
2023/12/02 12:53:11;;;;;;;3.58;3.08;;;;;;;;;;5064542;28;20032;-69
2023/12/02 12:55:41;;;;;;;6.43;3.42;;;;;;;;;;5061281;28;20526;-69
2023/12/02 12:58:08;;;;;;;3.83;2.63;;;;;;;;;;5063689;28;20123;-72
2023/12/02 13:00:36;;;;;;;4.45;2.90;;;;;;;;;;5058649;28;20468;-69
2023/12/02 13:03:21;;;;;;;4.05;2.97;;;;;;;;;;5067272;28;20032;-69
2023/12/02 13:05:51;;;;;;;5.53;2.67;;;;;;;;;;5065965;28;20024;-70
2023/12/02 13:08:36;;;;;;;3.38;2.83;;;;;;;;;;5062899;28;20147;-69
2023/12/02 13:11:06;;;;;;;3.95;2.70;;;;;;;;;;5061727;28;20024;-69
2023/12/02 13:13:32;;;;;;;4.18;2.70;;;;;;;;;;5064415;28;20078;-69
2023/12/02 13:16:01;;;;;;;3.70;2.65;;;;;;;;;;5067569;28;20119;-68
2023/12/02 13:18:29;;;;;;;3.75;2.38;;;;;;;;;;5061146;28;20047;-68
2023/12/02 13:20:55;;;;;;;3.17;2.55;;;;;;;;;;5063884;28;20028;-68
2023/12/02 13:23:24;;;;;;;6.40;3.47;;;;;;;;;;5074199;28;20025;-68
2023/12/02 13:25:51;;;;;;;4.88;3.20;;;;;;;;;;5064854;28;20043;-69
2023/12/02 13:28:32;;;;;;;7.15;5.00;;;;;;;;;;5070765;28;20047;-69
2023/12/02 13:30:59;;;;;;;6.07;3.85;;;;;;;;;;5064543;28;20059;-68
2023/12/02 13:33:49;;;;;;;3.90;3.47;;;;;;;;;;5061899;28;20396;-69
2023/12/02 13:36:23;;;;;;;8.38;4.90;;;;;;;;;;5056963;28;20107;-69
2023/12/02 13:38:57;;;;;;;10.85;7.93;;;;;;;;;;5065038;28;20391;-69
2023/12/02 13:41:24;;;;;;;11.80;8.50;;;;;;;;;;5066755;28;20035;-69
2023/12/02 13:43:54;;;;;;;18.75;9.93;;;;;;;;;;5072845;28;20067;-69
2023/12/02 13:46:40;;;;;;;9.70;6.30;;;;;;;;;;5065059;28;20048;-68
2023/12/02 13:49:07;;;;;;;8.65;6.15;;;;;;;;;;5063903;28;20032;-69
2023/12/02 13:51:42;;;;;;;7.53;4.78;;;;;;;;;;5058418;28;20044;-69
2023/12/02 13:54:27;;;;;;;4.43;4.00;;;;;;;;;;5058041;28;20145;-69
2023/12/02 13:57:08;;;;;;;4.45;4.00;;;;;;;;;;5053292;28;20443;-68
2023/12/02 13:59:38;;;;;;;7.30;4.28;;;;;;;;;;5080564;28;20021;-70
2023/12/02 14:02:14;;;;;;;4.65;4.15;;;;;;;;;;5055866;28;20040;-69
2023/12/02 14:04:50;;;;;;;5.45;3.80;;;;;;;;;;5060905;28;20685;-68
2023/12/02 14:07:27;;;;;;;6.95;4.38;;;;;;;;;;5082839;28;20055;-68
2023/12/02 14:09:55;;;;;;;7.78;4.78;;;;;;;;;;5072307;28;20467;-69
2023/12/02 14:12:34;;;;;;;7.88;5.72;;;;;;;;;;5064834;28;20024;-68
2023/12/02 14:15:18;;;;;;;5.85;4.10;;;;;;;;;;5054163;28;20480;-73
2023/12/02 14:17:48;;;;;;;9.52;5.25;;;;;;;;;;5055589;28;20043;-68
2023/12/02 14:20:23;;;;;;;7.65;4.63;;;;;;;;;;5075875;28;20423;-67
2023/12/02 14:23:07;;;;;;;6.40;4.07;;;;;;;;;;5057049;28;20038;-68
2023/12/02 14:25:40;;;;;;;5.45;4.32;;;;;;;;;;5060143;28;20042;-68
2023/12/02 14:28:13;;;;;;;7.53;4.47;;;;;;;;;;5058338;28;20039;-67
2023/12/02 14:30:39;;;;;;;6.40;4.45;;;;;;;;;;5059983;28;20055;-68
2023/12/02 14:33:05;;;;;;;8.55;5.18;;;;;;;;;;5062355;28;20278;-68
2023/12/02 14:35:41;;;;;;;5.45;4.18;;;;;;;;;;5059616;28;20024;-68
2023/12/02 14:38:20;;;;;;;7.63;4.95;;;;;;;;;;5057354;28;20036;-68
2023/12/02 14:40:50;;;;;;;8.95;5.25;;;;;;;;;;5056371;28;20563;-68
2023/12/02 14:43:16;;;;;;;8.65;6.43;;;;;;;;;;5056825;28;20025;-68
2023/12/02 14:45:43;;;;;;;6.90;5.40;;;;;;;;;;5059270;28;20079;-67
2023/12/02 14:48:13;;;;;;;8.20;4.80;;;;;;;;;;5054202;28;20127;-68
2023/12/02 14:50:43;;;;;;;21.15;9.50;;;;;;;;;;5054687;28;20032;-67